Blaine, Washington
Current Conditions -  °F | °C
As of 6:53 AM on Saturday 25 Oct 2014 (Local Time) from KBLI Reporting Station
Clear Clear  
Wind Chill: 50°   Ceiling: Unl
Heat Index: 50°   Visibility: 10mi
Dew Point: 43°   Wind: 10mph
Humidity: 77%   Direction: 10°N
Pressure: 29.48"   Gusts: NA
Location:  48.99°N, 122.74°W
Report Text: KBLI 251353Z 01009KT 10SM CLR 10/06 A2948 RMK AO2 SLP988 T01000061
Loading
Personal Weather Stations






























Interactive Weather Map
Tropical Storm Tracking
New forecast layout! Learn more

10-Day Weather Forecast

Advertisements
Track Severe Weather on mobile